Time;durP1;ratioP1;P1;durP2;ratioP2;P2;SDS_P1;SDS_P2;PMS_P1;PMS_P2;Temp;Humidity;BMP_temperature;BMP_pressure;BME280_temperature;BME280_humidity;BME280_pressure;Samples;Min_cycle;Max_cycle;Signal;HPM_P1;HPM_P2
2022/04/23 10:03:56;;;;;;;11.88;10.57;;;17.30;99.90;;;;;;5103509;27;20548;-66
2022/04/23 10:06:23;;;;;;;17.58;11.88;;;14.70;99.90;;;;;;5070992;28;20521;-66
2022/04/23 10:08:55;;;;;;;13.75;10.98;;;14.80;99.90;;;;;;5070952;28;20567;-66
2022/04/23 10:11:25;;;;;;;15.32;11.60;;;14.90;99.90;;;;;;5070794;28;20165;-66
2022/04/23 10:14:06;;;;;;;14.30;10.68;;;15.10;99.90;;;;;;5071022;28;20203;-66
2022/04/23 10:16:33;;;;;;;12.70;11.50;;;15.20;99.90;;;;;;5070720;28;20633;-66
2022/04/23 10:19:00;;;;;;;13.18;11.10;;;15.30;99.90;;;;;;5070624;28;20199;-66
2022/04/23 10:21:42;;;;;;;13.10;11.68;;;15.50;99.90;;;;;;5070720;28;20176;-66
2022/04/23 10:24:15;;;;;;;15.20;11.85;;;15.70;99.90;;;;;;5070705;28;20522;-66
2022/04/23 10:26:52;;;;;;;12.52;11.25;;;15.80;99.90;;;;;;5070578;28;20165;-66
2022/04/23 10:29:26;;;;;;;11.15;9.98;;;15.90;99.90;;;;;;5070563;28;20169;-66
2022/04/23 10:32:10;;;;;;;11.57;10.38;;;15.80;99.90;;;;;;5070342;28;20199;-66
2022/04/23 10:34:37;;;;;;;11.80;9.88;;;15.80;99.90;;;;;;5070502;28;20509;-66
2022/04/23 10:37:22;;;;;;;10.85;9.82;;;15.80;99.90;;;;;;5070414;28;20169;-66
2022/04/23 10:39:51;;;;;;;13.50;10.35;;;15.70;99.90;;;;;;5070188;28;20188;-66
2022/04/23 10:42:17;;;;;;;13.45;11.98;;;15.90;99.90;;;;;;5070184;28;20646;-66
2022/04/23 10:44:44;;;;;;;13.85;9.70;;;16.00;99.90;;;;;;5070316;28;20192;-66
2022/04/23 10:47:34;;;;;;;11.55;10.35;;;16.10;99.90;;;;;;5070236;28;20165;-66
2022/04/23 10:52:40;;;;;;;13.10;11.80;;;16.40;99.90;;;;;;5070124;28;20598;-66
2022/04/23 10:55:07;;;;;;;13.52;11.77;;;16.30;99.90;;;;;;5070038;28;20528;-66
2022/04/23 10:57:34;;;;;;;16.38;11.75;;;16.10;99.90;;;;;;5068692;28;20172;-66
2022/04/23 11:00:11;;;;;;;14.32;12.15;;;16.10;99.90;;;;;;5069839;28;20165;-66
2022/04/23 11:02:39;;;;;;;13.15;11.38;;;16.10;99.90;;;;;;5069696;28;20589;-66
2022/04/23 11:13:53;;;;;;;16.25;11.52;;;15.90;99.90;;;;;;5064297;28;20179;-66
2022/04/23 11:16:21;;;;;;;13.77;12.00;;;15.90;99.90;;;;;;5056562;28;20169;-66
2022/04/23 11:18:51;;;;;;;13.38;11.77;;;15.80;99.90;;;;;;5056491;28;20169;-66
2022/04/23 11:21:23;;;;;;;12.63;11.32;;;15.70;99.90;;;;;;5055337;28;20173;-66
2022/04/23 11:23:49;;;;;;;14.60;11.93;;;15.70;99.90;;;;;;5056287;28;20193;-66
2022/04/23 11:26:18;;;;;;;13.68;10.07;;;15.60;99.90;;;;;;5056052;28;20725;-66
2022/04/23 11:28:44;;;;;;;10.60;9.60;;;15.80;99.90;;;;;;5056073;28;20173;-66
2022/04/23 11:31:17;;;;;;;10.32;9.35;;;16.00;99.90;;;;;;5055898;28;20173;-66
2022/04/23 11:33:59;;;;;;;11.18;10.07;;;16.20;99.90;;;;;;5056148;28;20487;-66
2022/04/23 11:36:27;;;;;;;12.55;10.43;;;16.40;99.90;;;;;;5055978;28;20247;-66
2022/04/23 11:38:57;;;;;;;13.65;10.60;;;16.50;99.90;;;;;;5055945;28;20203;-66
2022/04/23 11:41:47;;;;;;;10.20;9.20;;;16.50;99.90;;;;;;5055983;28;20165;-66
2022/04/23 11:47:09;;;;;;;10.60;9.50;;;16.50;99.90;;;;;;5055863;28;20223;-66
2022/04/23 11:49:35;;;;;;;11.82;10.63;;;16.50;99.90;;;;;;5055877;28;20169;-66
2022/04/23 11:52:14;;;;;;;11.93;10.73;;;16.40;99.90;;;;;;5055803;28;20165;-66
2022/04/23 11:54:44;;;;;;;11.80;10.20;;;16.40;99.90;;;;;;5055532;28;20200;-66
2022/04/23 11:57:13;;;;;;;11.25;9.50;;;16.40;99.90;;;;;;5055637;28;20181;-66
2022/04/23 11:59:42;;;;;;;10.63;9.57;;;16.50;99.90;;;;;;5055450;28;20176;-66
2022/04/23 12:02:17;;;;;;;12.30;10.23;;;16.60;99.90;;;;;;5054971;28;20225;-66
2022/04/23 12:04:44;;;;;;;11.20;9.43;;;16.70;99.90;;;;;;5055408;28;20171;-66
2022/04/23 12:07:10;;;;;;;10.10;9.13;;;16.90;99.90;;;;;;5055507;28;20204;-66
2022/04/23 12:09:56;;;;;;;14.02;9.18;;;17.00;99.90;;;;;;5055397;28;20165;-66
2022/04/23 12:12:24;;;;;;;9.93;8.75;;;17.10;99.90;;;;;;5055347;28;20161;-66
2022/04/23 12:14:54;;;;;;;11.95;9.50;;;17.20;99.90;;;;;;5055214;28;20171;-66
2022/04/23 12:17:23;;;;;;;10.60;9.57;;;17.30;99.90;;;;;;5055071;28;20176;-66
2022/04/23 12:19:50;;;;;;;9.52;8.50;;;17.40;99.90;;;;;;5055153;28;20250;-66
2022/04/23 12:22:28;;;;;;;12.32;10.35;;;17.60;99.90;;;;;;5055141;28;20181;-66
2022/04/23 12:25:11;;;;;;;11.23;9.38;;;17.80;99.90;;;;;;5054832;28;20256;-66
2022/04/23 12:27:58;;;;;;;11.00;9.85;;;18.20;99.90;;;;;;5054714;28;20524;-66
2022/04/23 12:41:59;;;;;;;16.10;10.32;;;18.20;99.90;;;;;;5054955;28;20171;-66
2022/04/23 12:44:52;;;;;;;12.20;10.05;;;18.40;99.90;;;;;;5054636;28;20183;-66
2022/04/23 12:47:33;;;;;;;12.32;10.52;;;18.60;99.90;;;;;;5054673;28;20259;-66
2022/04/23 12:50:05;;;;;;;11.15;10.05;;;18.90;99.90;;;;;;5053366;28;20548;-66
2022/04/23 12:52:37;;;;;;;11.27;9.73;;;19.20;99.90;;;;;;5054570;28;20172;-66
2022/04/23 12:55:22;;;;;;;11.45;10.20;;;19.30;99.90;;;;;;5054650;28;20168;-66
2022/04/23 12:57:49;;;;;;;9.45;8.63;;;19.10;99.90;;;;;;5054614;28;20634;-66
2022/04/23 13:00:23;;;;;;;9.93;9.02;;;19.10;99.90;;;;;;5054558;28;20167;-67
2022/04/23 13:02:54;;;;;;;12.95;9.73;;;19.00;99.90;;;;;;5054253;28;20575;-66
2022/04/23 13:05:20;;;;;;;10.57;9.55;;;18.90;99.90;;;;;;5054348;28;20160;-66
2022/04/23 13:10:32;;;;;;;9.40;8.65;;;18.50;99.90;;;;;;5054534;28;20176;-66
2022/04/23 13:12:58;;;;;;;11.00;9.05;;;18.40;99.90;;;;;;5054211;28;20165;-66
2022/04/23 13:15:24;;;;;;;12.27;10.15;;;18.40;99.90;;;;;;5053907;28;20165;-66
2022/04/23 13:17:50;;;;;;;10.30;9.30;;;18.20;99.90;;;;;;5054054;28;20172;-66
2022/04/23 13:20:16;;;;;;;13.00;9.98;;;18.10;99.90;;;;;;5054375;28;20576;-66
2022/04/23 13:22:45;;;;;;;10.68;9.68;;;18.10;99.90;;;;;;5053879;28;20196;-66
2022/04/23 13:25:13;;;;;;;10.65;9.55;;;18.10;99.90;;;;;;5053951;28;20165;-66
2022/04/23 13:27:39;;;;;;;9.75;8.60;;;18.30;99.90;;;;;;5054023;28;20263;-66
2022/04/23 13:30:06;;;;;;;9.98;8.95;;;18.50;99.90;;;;;;5053984;28;20179;-66
2022/04/23 13:32:34;;;;;;;9.40;8.35;;;18.60;99.90;;;;;;5053769;28;20169;-66
2022/04/23 13:35:00;;;;;;;8.95;8.15;;;18.80;99.90;;;;;;5053820;28;20168;-66
2022/04/23 13:37:25;;;;;;;8.85;7.90;;;19.30;99.90;;;;;;5052270;28;20179;-66
2022/04/23 13:39:51;;;;;;;8.45;7.70;;;19.60;99.90;;;;;;5053588;28;20188;-66
2022/04/23 13:42:19;;;;;;;8.63;7.88;;;19.80;99.90;;;;;;5053732;28;20235;-66
2022/04/23 13:44:46;;;;;;;9.05;8.27;;;19.90;99.90;;;;;;5053773;28;20169;-66
2022/04/23 13:47:12;;;;;;;8.93;8.02;;;20.00;99.90;;;;;;5053548;28;20599;-66
2022/04/23 13:49:38;;;;;;;7.80;7.15;;;20.20;99.90;;;;;;5053593;28;20176;-66
2022/04/23 13:52:04;;;;;;;9.43;8.45;;;20.40;99.90;;;;;;5053581;28;20181;-66
2022/04/23 13:54:33;;;;;;;10.25;9.20;;;20.30;99.90;;;;;;5053441;28;20191;-66
2022/04/23 13:57:03;;;;;;;11.35;10.25;;;20.00;99.90;;;;;;5053522;28;20203;-66
2022/04/23 13:59:33;;;;;;;10.48;9.55;;;19.70;99.90;;;;;;5053575;28;20196;-66
2022/04/23 14:10:11;;;;;;;11.77;10.68;;;18.20;99.90;;;;;;5053340;28;20195;-65
2022/04/23 14:12:40;;;;;;;17.55;11.30;;;18.00;99.90;;;;;;5053057;28;20677;-66
2022/04/23 14:15:07;;;;;;;14.02;10.77;;;17.80;99.90;;;;;;5053365;28;20173;-66
2022/04/23 14:17:33;;;;;;;11.57;10.40;;;17.70;99.90;;;;;;5053153;28;20657;-66
2022/04/23 14:20:02;;;;;;;12.82;11.20;;;17.60;99.90;;;;;;5053069;28;20184;-66
2022/04/23 14:22:28;;;;;;;12.68;10.95;;;17.60;99.90;;;;;;5053067;28;20195;-66
2022/04/23 14:24:54;;;;;;;13.00;11.60;;;17.50;99.90;;;;;;5052949;28;20165;-66
2022/04/23 14:27:20;;;;;;;14.98;11.43;;;17.60;99.90;;;;;;5053052;28;20259;-67
2022/04/23 14:29:48;;;;;;;12.15;10.88;;;17.70;99.90;;;;;;5053169;28;20256;-66
2022/04/23 14:32:14;;;;;;;12.57;10.43;;;17.80;99.90;;;;;;5053168;28;20168;-67
2022/04/23 14:34:40;;;;;;;11.23;10.15;;;17.90;99.90;;;;;;5053139;28;20601;-66
2022/04/23 14:37:06;;;;;;;11.48;9.63;;;17.80;99.90;;;;;;5053047;28;20173;-66
2022/04/23 14:39:31;;;;;;;11.52;10.00;;;17.80;99.90;;;;;;5053207;28;20169;-66
2022/04/23 14:41:57;;;;;;;12.48;10.50;;;17.90;99.90;;;;;;5053103;28;20165;-66
2022/04/23 14:44:23;;;;;;;11.57;10.40;;;17.90;99.90;;;;;;5053090;28;20169;-66
2022/04/23 14:46:48;;;;;;;13.20;10.95;;;18.00;99.90;;;;;;5053212;28;20168;-66
2022/04/23 14:49:14;;;;;;;10.85;9.77;;;17.90;99.90;;;;;;5054263;28;20215;-66
2022/04/23 14:54:24;;;;;;;10.90;9.85;;;17.70;99.90;;;;;;5056872;28;20179;-66
2022/04/23 14:56:50;;;;;;;10.25;9.02;;;17.40;99.90;;;;;;5056713;28;20180;-66
2022/04/23 14:59:16;;;;;;;9.98;9.00;;;17.20;99.90;;;;;;5058188;28;20176;-67
2022/04/23 15:01:41;;;;;;;10.10;9.10;;;17.10;99.90;;;;;;5056170;28;20185;-67
2022/04/23 15:04:10;;;;;;;12.63;9.88;;;17.20;99.90;;;;;;5056532;28;20176;-67
2022/04/23 15:06:39;;;;;;;12.02;9.10;;;17.20;99.90;;;;;;5056670;28;20169;-67
2022/04/23 15:09:06;;;;;;;10.52;9.02;;;17.30;99.90;;;;;;5056555;28;20242;-67
2022/04/23 15:11:32;;;;;;;10.77;9.52;;;17.30;99.90;;;;;;5056236;28;20168;-67
2022/04/23 15:13:58;;;;;;;12.48;11.18;;;17.20;99.90;;;;;;5056391;28;20172;-67
2022/04/23 15:16:23;;;;;;;12.75;11.10;;;17.10;99.90;;;;;;5056430;28;20256;-67
2022/04/23 15:18:49;;;;;;;13.02;11.52;;;17.10;99.90;;;;;;5056295;28;20180;-67
2022/04/23 15:21:16;;;;;;;15.18;12.63;;;16.90;99.90;;;;;;5054975;28;20181;-67
2022/04/23 15:23:41;;;;;;;15.30;12.82;;;17.00;99.90;;;;;;5055963;28;20239;-67
2022/04/23 15:26:19;;;;;;;12.77;11.30;;;16.70;99.90;;;;;;5055880;28;20165;-67
2022/04/23 15:28:44;;;;;;;12.93;11.27;;;16.60;99.90;;;;;;5055962;28;20186;-67
2022/04/23 15:31:10;;;;;;;12.93;10.93;;;16.50;99.90;;;;;;5056031;28;20693;-67
2022/04/23 15:33:36;;;;;;;11.60;10.40;;;16.40;99.90;;;;;;5054687;28;20177;-67
2022/04/23 15:36:03;;;;;;;11.32;10.10;;;16.30;99.90;;;;;;5056119;28;20551;-67
2022/04/23 15:38:29;;;;;;;11.43;10.30;;;16.10;99.90;;;;;;5056035;28;20628;-67
2022/04/23 15:40:55;;;;;;;12.30;11.10;;;16.00;99.90;;;;;;5055825;28;20183;-67
2022/04/23 15:43:21;;;;;;;11.88;10.23;;;15.90;99.90;;;;;;5055574;28;20275;-67
2022/04/23 15:45:47;;;;;;;11.40;10.25;;;15.80;99.90;;;;;;5054818;28;20177;-67
2022/04/23 15:48:12;;;;;;;11.98;10.88;;;15.80;99.90;;;;;;5055594;28;20169;-67
2022/04/23 15:50:42;;;;;;;13.05;10.15;;;15.80;99.90;;;;;;5055704;28;20204;-67
2022/04/23 15:53:07;;;;;;;12.45;11.15;;;15.70;99.90;;;;;;5055746;28;20259;-67
2022/04/23 15:55:34;;;;;;;13.30;10.85;;;15.60;99.90;;;;;;5055734;28;20209;-67
2022/04/23 15:57:59;;;;;;;12.35;11.07;;;15.50;99.90;;;;;;5055618;28;20626;-67
2022/04/23 16:00:25;;;;;;;12.68;11.23;;;15.50;99.90;;;;;;5055372;28;20199;-67
2022/04/23 16:03:24;;;;;;;15.30;9.68;;;15.50;99.90;;;;;;5055213;28;20224;-67
2022/04/23 16:05:37;;;;;;;13.68;11.65;;;15.40;99.90;;;;;;5055240;28;20173;-66
2022/04/23 16:08:03;;;;;;;13.13;10.57;;;15.40;99.90;;;;;;5055257;28;20165;-66
2022/04/23 16:10:29;;;;;;;11.43;10.07;;;15.40;99.90;;;;;;5055424;28;20180;-66
2022/04/23 16:12:55;;;;;;;11.05;9.38;;;15.30;99.90;;;;;;5055191;28;20193;-67
2022/04/23 16:15:20;;;;;;;10.57;9.25;;;15.30;99.90;;;;;;5055329;28;20166;-67
2022/04/23 16:17:46;;;;;;;11.82;10.40;;;15.30;99.90;;;;;;5054959;28;20231;-67
2022/04/23 16:20:12;;;;;;;10.35;9.45;;;15.20;99.90;;;;;;5055082;28;20188;-67
2022/04/23 16:22:38;;;;;;;11.35;9.15;;;15.10;99.90;;;;;;5053891;28;20205;-67
2022/04/23 16:25:04;;;;;;;11.35;10.25;;;15.20;99.90;;;;;;5055005;28;20161;-67
2022/04/23 16:27:33;;;;;;;10.88;9.80;;;15.10;99.90;;;;;;5053750;28;20212;-67
2022/04/23 16:29:58;;;;;;;9.20;8.40;;;15.10;99.90;;;;;;5054791;28;20201;-67
2022/04/23 16:32:24;;;;;;;9.93;9.05;;;15.10;99.90;;;;;;5054683;28;20204;-67
2022/04/23 16:34:50;;;;;;;10.10;8.82;;;15.10;99.90;;;;;;5054588;28;20234;-67
2022/04/23 16:48:12;;;;;;;9.98;8.98;;;15.00;99.90;;;;;;5054543;28;20550;-67
2022/04/23 16:50:39;;;;;;;9.70;8.48;;;15.10;99.90;;;;;;5054562;28;20165;-67
2022/04/23 16:53:05;;;;;;;16.75;8.57;;;15.10;99.90;;;;;;5054164;28;20180;-67
2022/04/23 16:55:31;;;;;;;9.55;7.90;;;15.10;99.90;;;;;;5054237;28;20196;-67
2022/04/23 16:57:57;;;;;;;8.88;7.93;;;15.10;99.90;;;;;;5054165;28;20172;-67
2022/04/23 17:00:23;;;;;;;12.55;8.77;;;15.00;99.90;;;;;;5054258;28;20227;-67
2022/04/23 17:36:12;;;;;;;9.93;8.05;;;14.50;99.90;;;;;;5148207;27;20881;-66
2022/04/23 17:38:56;;;;;;;9.90;8.43;;;14.60;99.90;;;;;;5131937;28;20635;-66
2022/04/23 17:41:22;;;;;;;9.50;8.60;;;14.50;99.90;;;;;;5131878;28;20162;-66
2022/04/23 17:43:49;;;;;;;9.70;8.75;;;14.50;99.90;;;;;;5131759;28;20262;-66
